Time;durP1;ratioP1;P1;durP2;ratioP2;P2;SDS_P1;SDS_P2;PMS_P1;PMS_P2;Temp;Humidity;BMP_temperature;BMP_pressure;BME280_temperature;BME280_humidity;BME280_pressure;Samples;Min_cycle;Max_cycle;Signal;HPM_P1;HPM_P2
2022/07/28 00:01:12;;;;;;;7.30;4.90;;;13.70;64.00;;;;;;5072304;28;20199;-43
2022/07/28 00:03:44;;;;;;;6.75;5.10;;;13.70;63.90;;;;;;5059376;28;20215;-42
2022/07/28 00:06:15;;;;;;;6.43;5.07;;;13.70;64.00;;;;;;5052139;28;20199;-38
2022/07/28 00:08:46;;;;;;;7.18;5.53;;;13.70;63.90;;;;;;5069358;28;20210;-42
2022/07/28 00:11:18;;;;;;;6.35;4.90;;;13.70;64.00;;;;;;5070690;28;20658;-42
2022/07/28 00:13:49;;;;;;;7.80;5.15;;;13.70;63.90;;;;;;5072290;28;20222;-38
2022/07/28 00:16:20;;;;;;;6.15;5.20;;;13.70;63.80;;;;;;5072302;28;20221;-45
2022/07/28 00:18:50;;;;;;;7.35;5.03;;;13.80;64.00;;;;;;5071225;28;20214;-43
2022/07/28 00:21:21;;;;;;;6.05;4.90;;;13.80;64.00;;;;;;5070568;28;20194;-43
2022/07/28 00:23:52;;;;;;;5.15;4.43;;;13.80;64.20;;;;;;5071650;28;20218;-38
2022/07/28 00:26:24;;;;;;;5.65;4.65;;;13.80;64.40;;;;;;5069685;28;20195;-52
2022/07/28 00:28:55;;;;;;;5.70;4.45;;;13.80;64.40;;;;;;5071707;28;20202;-47
2022/07/28 00:31:26;;;;;;;6.18;4.75;;;13.80;64.50;;;;;;5070836;28;20567;-47
2022/07/28 00:33:56;;;;;;;6.45;4.18;;;13.90;64.60;;;;;;5071048;28;20219;-40
2022/07/28 00:36:27;;;;;;;5.03;4.53;;;13.90;64.50;;;;;;5070843;28;20195;-40
2022/07/28 00:38:58;;;;;;;6.30;4.63;;;13.90;64.40;;;;;;5071259;28;20223;-41
2022/07/28 00:41:30;;;;;;;6.82;4.90;;;13.90;64.40;;;;;;5070825;28;20224;-39
2022/07/28 00:44:01;;;;;;;4.97;4.15;;;13.90;64.30;;;;;;5070420;28;20238;-39
2022/07/28 00:46:32;;;;;;;5.82;4.10;;;14.00;64.30;;;;;;5070834;28;20195;-45
2022/07/28 00:49:03;;;;;;;4.55;4.10;;;14.00;64.30;;;;;;5069484;28;20201;-45
2022/07/28 00:51:33;;;;;;;6.00;4.30;;;14.00;64.30;;;;;;5071060;28;20347;-47
2022/07/28 00:54:04;;;;;;;7.10;4.45;;;14.00;64.40;;;;;;5070689;28;20230;-39
2022/07/28 00:56:37;;;;;;;6.97;4.78;;;14.00;64.60;;;;;;5071562;28;20199;-39
2022/07/28 00:59:08;;;;;;;5.95;4.53;;;14.00;64.60;;;;;;5071141;28;20226;-40
2022/07/28 01:01:39;;;;;;;5.22;4.30;;;14.00;64.60;;;;;;5071707;28;20210;-39
2022/07/28 01:04:10;;;;;;;6.45;4.88;;;14.00;64.50;;;;;;5054406;28;20234;-42
2022/07/28 01:06:53;;;;;;;7.20;4.47;;;14.00;64.50;;;;;;5051931;28;20199;-38
2022/07/28 01:09:57;;;;;;;5.05;4.28;;;14.00;64.50;;;;;;5091247;28;20537;-44
2022/07/28 01:12:43;;;;;;;6.22;4.70;;;14.10;64.50;;;;;;5088496;28;20217;-42
2022/07/28 01:15:24;;;;;;;8.13;5.13;;;14.10;64.30;;;;;;5091110;28;20194;-39
2022/07/28 01:18:02;;;;;;;7.82;4.80;;;14.10;64.30;;;;;;5090433;28;20642;-39
2022/07/28 01:20:38;;;;;;;8.50;5.50;;;14.10;65.10;;;;;;5088873;28;20210;-41
2022/07/28 01:23:26;;;;;;;10.10;5.55;;;14.20;64.50;;;;;;5069743;28;20210;-42
2022/07/28 01:26:11;;;;;;;7.53;5.18;;;14.20;64.50;;;;;;5071152;28;20206;-48
2022/07/28 01:29:01;;;;;;;8.63;5.00;;;14.20;64.60;;;;;;5070854;28;20217;-42
2022/07/28 01:31:37;;;;;;;6.93;5.28;;;14.20;64.60;;;;;;5070246;28;20195;-39
2022/07/28 01:34:14;;;;;;;9.93;4.85;;;14.20;64.50;;;;;;5070352;28;20621;-42
2022/07/28 01:36:52;;;;;;;8.07;5.38;;;14.20;64.50;;;;;;5074419;28;20865;-39
2022/07/28 01:39:26;;;;;;;7.28;5.05;;;14.20;64.50;;;;;;5092647;28;20633;-38
2022/07/28 01:41:59;;;;;;;7.07;5.00;;;14.20;64.50;;;;;;5095633;28;20197;-55
2022/07/28 01:44:31;;;;;;;6.90;4.65;;;14.20;64.30;;;;;;5094543;28;20676;-42
2022/07/28 01:47:06;;;;;;;7.65;5.07;;;14.30;64.30;;;;;;5081186;28;20201;-38
2022/07/28 01:49:38;;;;;;;6.53;4.55;;;14.30;64.30;;;;;;5074410;28;20195;-44
2022/07/28 01:52:10;;;;;;;6.50;4.50;;;14.30;65.00;;;;;;5074294;28;20225;-40
2022/07/28 01:54:44;;;;;;;5.07;4.07;;;14.30;64.10;;;;;;5073781;28;20198;-39
2022/07/28 01:57:16;;;;;;;5.03;3.95;;;14.30;64.10;;;;;;5074565;28;20203;-38
2022/07/28 01:59:48;;;;;;;4.50;3.72;;;14.30;64.10;;;;;;5054003;28;20219;-45
2022/07/28 02:02:22;;;;;;;4.95;4.18;;;14.30;64.20;;;;;;5055029;28;20219;-41
2022/07/28 02:04:54;;;;;;;6.47;4.75;;;14.30;64.20;;;;;;5054994;28;20199;-38
2022/07/28 02:07:26;;;;;;;5.40;3.90;;;14.30;64.20;;;;;;5054487;28;20196;-42
2022/07/28 02:09:58;;;;;;;4.68;3.85;;;14.30;64.20;;;;;;5074166;28;20191;-47
2022/07/28 02:12:29;;;;;;;4.55;3.33;;;14.30;64.10;;;;;;5073903;28;20584;-45
2022/07/28 02:15:01;;;;;;;4.57;3.58;;;14.30;64.10;;;;;;5074203;28;20191;-39
2022/07/28 02:17:36;;;;;;;3.97;3.35;;;14.40;64.20;;;;;;5073661;28;20187;-38
2022/07/28 02:20:08;;;;;;;4.50;3.60;;;14.40;64.20;;;;;;5074068;28;20218;-43
2022/07/28 02:22:40;;;;;;;4.35;3.40;;;14.40;64.10;;;;;;5074254;28;20227;-42
2022/07/28 02:25:11;;;;;;;4.18;3.20;;;14.40;64.10;;;;;;5073509;28;20214;-39
2022/07/28 02:27:48;;;;;;;4.32;3.10;;;14.40;64.00;;;;;;5072514;28;20218;-43
2022/07/28 02:30:21;;;;;;;4.22;3.20;;;14.40;64.00;;;;;;5073509;28;20218;-41
2022/07/28 02:32:56;;;;;;;4.50;3.15;;;14.40;64.10;;;;;;5072679;28;20217;-42
2022/07/28 02:35:31;;;;;;;3.80;3.40;;;14.40;64.10;;;;;;5072696;28;20206;-41
2022/07/28 02:38:05;;;;;;;3.60;3.00;;;14.40;64.10;;;;;;5073564;28;20187;-44
2022/07/28 02:40:39;;;;;;;3.85;3.05;;;14.40;64.10;;;;;;5073565;28;20218;-48
2022/07/28 02:43:14;;;;;;;4.20;3.13;;;14.40;64.10;;;;;;5073906;28;20207;-53
2022/07/28 02:45:47;;;;;;;3.42;3.13;;;14.40;64.10;;;;;;5073146;28;20190;-39
2022/07/28 02:48:25;;;;;;;3.38;3.08;;;14.40;64.10;;;;;;5073791;28;20198;-39
2022/07/28 02:50:58;;;;;;;3.58;3.20;;;14.50;64.10;;;;;;5072609;28;20375;-43
2022/07/28 02:53:31;;;;;;;3.38;3.08;;;14.50;64.00;;;;;;5073497;28;20207;-49
2022/07/28 02:56:02;;;;;;;3.53;3.03;;;14.50;63.90;;;;;;5073052;28;20232;-41
2022/07/28 02:58:34;;;;;;;3.45;3.15;;;14.50;63.90;;;;;;5072475;28;20202;-43
2022/07/28 03:01:05;;;;;;;4.20;3.00;;;14.50;63.90;;;;;;5070098;28;20199;-44
2022/07/28 03:03:39;;;;;;;3.78;2.95;;;14.50;64.00;;;;;;5071308;28;20210;-39
2022/07/28 03:06:10;;;;;;;3.47;3.00;;;14.50;64.00;;;;;;5073712;28;20218;-50
2022/07/28 03:08:41;;;;;;;3.70;3.40;;;14.50;64.00;;;;;;5073316;28;20281;-40
2022/07/28 03:11:12;;;;;;;3.70;3.30;;;14.50;63.90;;;;;;5073402;28;20202;-50
2022/07/28 03:13:43;;;;;;;3.95;3.55;;;14.50;64.00;;;;;;5072469;28;20219;-42
2022/07/28 03:16:14;;;;;;;4.22;3.83;;;14.50;64.00;;;;;;5072576;28;20202;-51
2022/07/28 03:18:47;;;;;;;4.68;3.67;;;14.50;64.00;;;;;;5072718;28;20252;-48
2022/07/28 03:21:18;;;;;;;5.13;3.47;;;14.50;64.10;;;;;;5063632;28;20199;-46
2022/07/28 03:23:51;;;;;;;5.18;4.22;;;14.50;64.10;;;;;;5073326;28;20207;-43
2022/07/28 03:26:32;;;;;;;5.63;3.97;;;14.50;64.10;;;;;;5072353;28;20210;-39
2022/07/28 03:29:04;;;;;;;6.88;4.80;;;14.50;64.00;;;;;;5072231;28;20666;-44
2022/07/28 03:31:38;;;;;;;6.78;5.18;;;14.50;64.00;;;;;;5072356;28;20286;-49
2022/07/28 03:34:11;;;;;;;7.57;5.85;;;14.50;63.90;;;;;;5072132;28;20210;-39
2022/07/28 03:36:45;;;;;;;7.47;5.65;;;14.50;64.10;;;;;;5072494;28;20198;-42
2022/07/28 03:39:18;;;;;;;8.30;6.22;;;14.60;64.20;;;;;;5072350;28;20690;-45
2022/07/28 03:41:50;;;;;;;10.40;6.72;;;14.50;64.20;;;;;;5072628;28;20202;-51
2022/07/28 03:44:21;;;;;;;10.95;7.50;;;14.50;64.20;;;;;;5072086;28;20195;-45
2022/07/28 03:46:52;;;;;;;9.82;6.55;;;14.60;64.30;;;;;;5072255;28;20202;-48
2022/07/28 03:49:24;;;;;;;11.15;6.93;;;14.60;64.30;;;;;;5072219;28;20203;-43
2022/07/28 03:51:55;;;;;;;9.98;6.80;;;14.60;64.30;;;;;;5071595;28;20677;-42
2022/07/28 03:54:26;;;;;;;10.05;6.95;;;14.60;64.30;;;;;;5072108;28;20202;-39
2022/07/28 03:56:56;;;;;;;11.65;7.25;;;14.60;65.10;;;;;;5065917;28;20199;-42
2022/07/28 03:59:27;;;;;;;10.50;7.03;;;14.50;64.30;;;;;;5092226;28;20579;-39
2022/07/28 04:01:58;;;;;;;11.70;7.00;;;14.60;64.40;;;;;;5091779;28;20194;-38
2022/07/28 04:04:31;;;;;;;8.70;7.07;;;14.60;64.40;;;;;;5091936;28;20198;-39
2022/07/28 04:07:01;;;;;;;9.25;6.30;;;14.60;64.40;;;;;;5092927;28;20199;-42
2022/07/28 04:09:32;;;;;;;7.97;6.05;;;14.60;64.40;;;;;;5092133;28;20198;-41
2022/07/28 04:12:03;;;;;;;8.18;5.85;;;14.60;64.50;;;;;;5090767;28;20195;-60
2022/07/28 04:14:33;;;;;;;7.95;5.95;;;14.60;64.50;;;;;;5091980;28;20202;-57
2022/07/28 04:17:04;;;;;;;8.35;5.55;;;14.60;64.40;;;;;;5087826;28;20191;-57
2022/07/28 04:19:37;;;;;;;7.88;5.82;;;14.60;64.40;;;;;;5071968;28;20221;-56
2022/07/28 04:22:07;;;;;;;8.27;5.40;;;14.60;64.30;;;;;;5071828;28;20203;-58
2022/07/28 04:24:38;;;;;;;6.30;5.28;;;14.60;64.40;;;;;;5072131;28;20199;-52
2022/07/28 04:27:09;;;;;;;5.82;5.07;;;14.60;64.50;;;;;;5071301;28;20206;-39
2022/07/28 04:29:40;;;;;;;5.47;4.88;;;14.60;64.60;;;;;;5071628;28;20191;-46
2022/07/28 04:32:11;;;;;;;6.65;5.07;;;14.60;64.60;;;;;;5071565;28;20219;-38
2022/07/28 04:34:43;;;;;;;5.40;4.90;;;14.60;64.60;;;;;;5071867;28;20195;-54
2022/07/28 04:37:14;;;;;;;5.72;4.63;;;14.60;64.60;;;;;;5070891;28;20191;-41
2022/07/28 04:39:45;;;;;;;5.70;4.75;;;14.60;64.60;;;;;;5071459;28;20308;-39
2022/07/28 04:42:17;;;;;;;5.25;4.72;;;14.60;64.60;;;;;;5071853;28;20215;-42
2022/07/28 04:44:48;;;;;;;5.50;4.97;;;14.60;64.60;;;;;;5071808;28;20308;-39
2022/07/28 04:47:18;;;;;;;5.22;4.72;;;14.60;64.60;;;;;;5066778;28;20190;-38
2022/07/28 04:49:51;;;;;;;5.07;4.63;;;14.60;64.60;;;;;;5071308;28;20217;-55
2022/07/28 04:52:22;;;;;;;5.65;4.60;;;14.60;64.60;;;;;;5067458;28;20219;-49
2022/07/28 04:54:53;;;;;;;4.95;4.50;;;14.60;64.60;;;;;;5050457;28;20199;-38
2022/07/28 04:57:25;;;;;;;6.38;5.25;;;14.60;64.70;;;;;;5076143;28;20198;-43
2022/07/28 04:59:56;;;;;;;5.32;4.82;;;14.60;64.60;;;;;;5070810;28;20244;-38
2022/07/28 05:02:27;;;;;;;5.32;4.72;;;14.60;64.80;;;;;;5070425;28;20226;-55
2022/07/28 05:04:59;;;;;;;6.20;5.32;;;14.60;64.80;;;;;;5064832;28;20658;-48
2022/07/28 05:07:30;;;;;;;6.72;5.53;;;14.60;64.80;;;;;;5064297;28;20197;-43
2022/07/28 05:10:01;;;;;;;6.38;5.35;;;14.60;64.80;;;;;;5070804;28;20199;-61
2022/07/28 05:12:31;;;;;;;6.18;5.50;;;14.60;64.90;;;;;;5070541;28;20237;-42
2022/07/28 05:15:02;;;;;;;7.65;6.13;;;14.60;64.90;;;;;;5070889;28;20203;-48
2022/07/28 05:17:33;;;;;;;7.07;6.38;;;14.60;64.80;;;;;;5070651;28;20194;-38
2022/07/28 05:20:07;;;;;;;7.72;6.72;;;14.60;64.90;;;;;;5070887;28;20214;-40
2022/07/28 05:22:45;;;;;;;7.82;6.97;;;14.60;64.80;;;;;;5071387;28;20272;-44
2022/07/28 05:25:20;;;;;;;8.10;7.30;;;14.60;64.80;;;;;;5070661;28;20218;-43
2022/07/28 05:27:51;;;;;;;9.43;8.00;;;14.60;64.80;;;;;;5070971;28;20186;-44
2022/07/28 05:30:23;;;;;;;9.57;8.35;;;14.60;64.80;;;;;;5070354;28;20207;-44
2022/07/28 05:32:58;;;;;;;11.25;8.85;;;14.60;64.90;;;;;;5070855;28;20234;-51
2022/07/28 05:35:30;;;;;;;12.63;10.07;;;14.60;64.90;;;;;;5070073;28;20202;-51
2022/07/28 05:38:01;;;;;;;13.07;9.90;;;14.50;64.90;;;;;;5070189;28;20191;-42
2022/07/28 05:40:32;;;;;;;14.00;10.43;;;14.60;64.90;;;;;;5071042;28;20226;-41
2022/07/28 05:43:02;;;;;;;13.13;11.38;;;14.50;64.90;;;;;;5082308;28;20217;-43
2022/07/28 05:45:34;;;;;;;16.85;12.93;;;14.60;65.00;;;;;;5081277;28;20191;-55
2022/07/28 05:48:05;;;;;;;16.80;12.27;;;14.60;64.90;;;;;;5070108;28;20194;-52
2022/07/28 05:50:37;;;;;;;16.23;13.05;;;14.60;64.90;;;;;;5070017;28;20203;-43
2022/07/28 05:53:08;;;;;;;15.02;12.45;;;14.50;64.90;;;;;;5070232;28;20210;-49
2022/07/28 05:55:39;;;;;;;18.75;13.80;;;14.50;64.80;;;;;;5070601;28;20195;-54
2022/07/28 05:58:09;;;;;;;17.00;13.60;;;14.50;64.80;;;;;;5070441;28;20199;-44
2022/07/28 06:00:40;;;;;;;18.33;14.10;;;14.50;64.70;;;;;;5069822;28;20218;-47
2022/07/28 06:03:13;;;;;;;19.25;14.65;;;14.50;64.70;;;;;;5070045;28;20218;-41
2022/07/28 06:05:46;;;;;;;21.55;15.75;;;14.50;64.70;;;;;;5071019;28;20199;-42
2022/07/28 06:08:17;;;;;;;21.48;16.48;;;14.50;64.80;;;;;;5069669;28;20202;-39
2022/07/28 06:11:08;;;;;;;18.67;15.88;;;14.50;64.80;;;;;;5070501;28;20197;-41
2022/07/28 06:13:39;;;;;;;19.00;14.55;;;14.50;64.90;;;;;;5070494;28;20298;-48
2022/07/28 06:16:10;;;;;;;20.05;15.27;;;14.50;65.00;;;;;;5070229;28;20195;-45
2022/07/28 06:18:42;;;;;;;18.90;15.13;;;14.50;64.80;;;;;;5069379;28;20785;-38
2022/07/28 06:21:15;;;;;;;18.23;14.82;;;14.50;64.80;;;;;;5071709;28;20222;-38
2022/07/28 06:23:45;;;;;;;20.25;15.07;;;14.50;64.90;;;;;;5073745;28;20572;-38
2022/07/28 06:26:16;;;;;;;20.23;16.05;;;14.50;64.90;;;;;;5073302;28;20210;-37
2022/07/28 06:28:47;;;;;;;20.27;15.15;;;14.50;65.00;;;;;;5073673;28;20191;-38
2022/07/28 06:31:18;;;;;;;17.48;14.13;;;14.50;65.00;;;;;;5073756;28;20671;-38
2022/07/28 06:33:48;;;;;;;17.98;14.88;;;14.50;65.00;;;;;;5073339;28;20211;-38
2022/07/28 06:36:21;;;;;;;17.73;14.48;;;14.50;65.00;;;;;;5073890;28;20203;-38
2022/07/28 06:38:51;;;;;;;20.15;14.70;;;14.50;65.00;;;;;;5073694;28;20187;-37
2022/07/28 06:41:22;;;;;;;20.15;15.05;;;14.50;65.00;;;;;;5068397;28;20223;-38
2022/07/28 06:43:53;;;;;;;17.88;13.75;;;14.50;64.90;;;;;;5072091;28;20211;-37
2022/07/28 06:46:23;;;;;;;17.55;14.10;;;14.50;64.90;;;;;;5054386;28;20204;-38
2022/07/28 06:48:54;;;;;;;15.98;13.57;;;14.50;64.80;;;;;;5072701;28;20206;-38
2022/07/28 06:51:27;;;;;;;18.65;14.15;;;14.50;64.80;;;;;;5073962;28;20699;-37
2022/07/28 06:53:58;;;;;;;18.50;13.27;;;14.50;64.80;;;;;;5071122;28;20225;-38
2022/07/28 06:56:29;;;;;;;16.80;13.48;;;14.50;64.80;;;;;;5073780;28;20261;-37
2022/07/28 06:58:59;;;;;;;16.13;12.93;;;14.50;64.80;;;;;;5072985;28;20183;-37
2022/07/28 07:01:30;;;;;;;16.70;13.52;;;14.50;64.80;;;;;;5073005;28;20226;-37
2022/07/28 07:04:01;;;;;;;15.77;12.95;;;14.50;64.80;;;;;;5091842;28;20214;-40
2022/07/28 07:06:33;;;;;;;14.38;12.52;;;14.50;64.80;;;;;;5082996;28;20546;-41
2022/07/28 07:09:04;;;;;;;17.02;13.10;;;14.50;64.80;;;;;;5073652;28;20198;-38
2022/07/28 07:11:35;;;;;;;16.38;12.57;;;14.50;64.80;;;;;;5073135;28;20195;-38
2022/07/28 07:14:05;;;;;;;16.23;13.15;;;14.50;64.80;;;;;;5073382;28;20222;-38
2022/07/28 07:16:36;;;;;;;14.15;11.50;;;14.50;64.70;;;;;;5073448;28;20552;-38
2022/07/28 07:19:07;;;;;;;13.85;11.05;;;14.50;64.70;;;;;;5073165;28;20222;-40
2022/07/28 07:21:39;;;;;;;15.02;12.77;;;14.50;65.00;;;;;;5072596;28;20226;-38
2022/07/28 07:24:11;;;;;;;14.68;11.65;;;14.50;65.00;;;;;;5069633;28;20218;-37
2022/07/28 07:26:42;;;;;;;14.68;12.52;;;14.50;64.90;;;;;;5061864;28;20547;-38
2022/07/28 07:29:13;;;;;;;14.95;11.75;;;14.50;64.90;;;;;;5053127;28;20192;-37
2022/07/28 07:31:44;;;;;;;14.55;11.80;;;14.50;64.90;;;;;;5052885;28;20203;-37
2022/07/28 07:34:14;;;;;;;13.60;11.48;;;14.50;65.00;;;;;;5052631;28;20203;-37
2022/07/28 07:36:47;;;;;;;13.90;11.40;;;14.50;64.90;;;;;;5055051;28;20572;-37
2022/07/28 07:39:18;;;;;;;15.90;12.60;;;14.50;64.90;;;;;;5072951;28;20685;-37
2022/07/28 07:41:49;;;;;;;13.63;11.02;;;14.50;64.80;;;;;;5072768;28;20686;-40
2022/07/28 07:44:20;;;;;;;13.65;10.70;;;14.50;64.80;;;;;;5072748;28;20191;-46
2022/07/28 07:46:50;;;;;;;13.25;11.05;;;14.50;64.80;;;;;;5072550;28;20201;-45
2022/07/28 07:49:21;;;;;;;12.27;10.93;;;14.50;64.80;;;;;;5072543;28;20194;-46
2022/07/28 07:51:53;;;;;;;14.00;10.90;;;14.50;64.70;;;;;;5072266;28;20297;-38
2022/07/28 07:54:24;;;;;;;12.10;10.30;;;14.50;64.70;;;;;;5072407;28;20210;-37
2022/07/28 07:56:55;;;;;;;11.93;10.35;;;14.50;64.60;;;;;;5072584;28;20199;-37
2022/07/28 07:59:26;;;;;;;12.77;10.95;;;14.50;64.60;;;;;;5072722;28;20198;-37
2022/07/28 08:01:56;;;;;;;12.98;10.45;;;14.50;64.60;;;;;;5072547;28;20229;-38
2022/07/28 08:04:27;;;;;;;12.18;10.50;;;14.50;64.50;;;;;;5072662;28;20195;-37
2022/07/28 08:07:00;;;;;;;12.25;10.95;;;14.50;64.60;;;;;;5072039;28;20206;-38
2022/07/28 08:09:30;;;;;;;12.45;10.35;;;14.50;64.70;;;;;;5072714;28;20268;-38
2022/07/28 08:12:01;;;;;;;13.13;10.57;;;14.50;64.60;;;;;;5072147;28;20202;-37
2022/07/28 08:14:32;;;;;;;11.15;9.98;;;14.50;64.60;;;;;;5072356;28;20199;-37
2022/07/28 08:17:02;;;;;;;12.07;10.27;;;14.50;64.60;;;;;;5072353;28;20567;-39
2022/07/28 08:19:33;;;;;;;12.95;10.07;;;14.50;64.60;;;;;;5072476;28;20198;-37
2022/07/28 08:22:06;;;;;;;9.93;8.90;;;14.50;64.60;;;;;;5071893;28;20570;-37
2022/07/28 08:24:37;;;;;;;12.07;10.20;;;14.50;64.60;;;;;;5072187;28;20685;-38
2022/07/28 08:27:08;;;;;;;12.43;9.43;;;14.50;64.60;;;;;;5071925;28;20195;-37
2022/07/28 08:29:38;;;;;;;11.32;9.57;;;14.50;64.60;;;;;;5071928;28;20278;-37
2022/07/28 08:32:09;;;;;;;10.55;9.45;;;14.50;64.60;;;;;;5071688;28;20221;-37
2022/07/28 08:34:40;;;;;;;11.02;9.55;;;14.50;65.20;;;;;;5071853;28;20191;-37
2022/07/28 08:37:13;;;;;;;11.63;9.52;;;14.50;64.50;;;;;;5071239;28;20199;-37
2022/07/28 08:39:43;;;;;;;12.52;9.75;;;14.50;64.50;;;;;;5071621;28;20194;-38
2022/07/28 08:42:17;;;;;;;13.32;10.32;;;14.50;64.50;;;;;;5071732;28;20226;-42
2022/07/28 08:44:53;;;;;;;10.80;9.00;;;14.50;64.50;;;;;;5071901;28;20650;-38
2022/07/28 08:47:25;;;;;;;11.30;9.65;;;14.50;64.60;;;;;;5071426;28;20268;-37
2022/07/28 08:49:58;;;;;;;10.45;8.88;;;14.50;64.50;;;;;;5071492;28;20651;-38
2022/07/28 08:52:32;;;;;;;10.38;9.27;;;14.50;64.60;;;;;;5070992;28;20327;-37
2022/07/28 08:55:05;;;;;;;10.57;9.10;;;14.40;64.50;;;;;;5071700;28;20696;-37
2022/07/28 08:57:38;;;;;;;11.20;9.23;;;14.40;64.50;;;;;;5071663;28;20195;-37
2022/07/28 09:00:10;;;;;;;10.38;9.18;;;14.50;64.50;;;;;;5071692;28;20207;-37
2022/07/28 09:02:45;;;;;;;10.40;9.02;;;14.40;64.50;;;;;;5071609;28;20233;-38
2022/07/28 09:05:16;;;;;;;10.55;9.45;;;14.50;64.50;;;;;;5071694;28;20197;-37
2022/07/28 09:07:50;;;;;;;10.63;9.52;;;14.50;64.40;;;;;;5071619;28;20201;-42
2022/07/28 09:10:22;;;;;;;10.68;8.95;;;14.50;64.40;;;;;;5071479;28;20198;-37
2022/07/28 09:12:54;;;;;;;10.13;9.13;;;14.50;64.50;;;;;;5071516;28;20629;-40
2022/07/28 09:15:24;;;;;;;10.23;9.07;;;14.50;64.40;;;;;;5071038;28;20260;-37
2022/07/28 09:17:55;;;;;;;11.07;9.00;;;14.50;64.40;;;;;;5071392;28;20559;-38
2022/07/28 09:20:27;;;;;;;10.40;9.02;;;14.40;64.40;;;;;;5071583;28;20202;-37
2022/07/28 09:23:02;;;;;;;11.07;9.70;;;14.40;64.40;;;;;;5071100;28;20223;-37
2022/07/28 09:25:33;;;;;;;8.73;7.82;;;14.40;64.50;;;;;;5070849;28;20576;-37
2022/07/28 09:28:10;;;;;;;9.85;8.68;;;14.40;64.40;;;;;;5070838;28;20560;-37
2022/07/28 09:30:42;;;;;;;9.38;8.00;;;14.40;64.40;;;;;;5071069;28;20195;-37
2022/07/28 09:33:18;;;;;;;9.88;8.32;;;14.40;64.50;;;;;;5070586;28;20226;-41
2022/07/28 09:35:50;;;;;;;9.18;7.95;;;14.40;64.40;;;;;;5070715;28;20248;-37
2022/07/28 09:38:24;;;;;;;9.60;8.57;;;14.40;64.30;;;;;;5070593;28;20191;-37
2022/07/28 09:41:02;;;;;;;9.18;8.07;;;14.40;64.30;;;;;;5070759;28;20197;-37
2022/07/28 09:43:37;;;;;;;8.38;7.45;;;14.40;64.30;;;;;;5070387;28;20222;-38
2022/07/28 09:46:12;;;;;;;9.35;7.50;;;14.40;64.70;;;;;;5071201;28;20206;-37
2022/07/28 09:48:54;;;;;;;7.95;6.95;;;14.50;65.00;;;;;;5065833;28;20187;-47
2022/07/28 09:51:27;;;;;;;9.55;8.18;;;14.50;65.00;;;;;;5069603;28;20689;-41
2022/07/28 09:54:10;;;;;;;8.35;7.40;;;14.50;65.00;;;;;;5070382;28;20272;-42
2022/07/28 09:56:42;;;;;;;8.43;7.43;;;14.40;64.90;;;;;;5053571;28;20199;-42
2022/07/28 09:59:13;;;;;;;8.52;7.35;;;14.50;65.00;;;;;;5063800;28;20197;-44
2022/07/28 10:01:55;;;;;;;9.18;8.27;;;14.50;64.90;;;;;;5073926;28;20237;-55
2022/07/28 10:04:36;;;;;;;9.15;7.35;;;14.50;64.80;;;;;;5084353;28;20202;-39
2022/07/28 10:07:11;;;;;;;8.45;6.60;;;14.50;64.80;;;;;;5088620;28;20191;-47
2022/07/28 10:09:44;;;;;;;9.05;7.57;;;14.50;64.70;;;;;;5074314;28;20295;-40
2022/07/28 10:12:20;;;;;;;7.97;7.13;;;14.50;64.70;;;;;;5074160;28;20214;-44
2022/07/28 10:14:52;;;;;;;7.78;6.78;;;14.50;64.70;;;;;;5074115;28;20536;-37
2022/07/28 10:17:27;;;;;;;7.13;6.40;;;14.50;64.70;;;;;;5073468;28;20191;-39
2022/07/28 10:19:59;;;;;;;7.85;6.80;;;14.50;64.60;;;;;;5074003;28;20605;-38
2022/07/28 10:22:32;;;;;;;8.68;7.13;;;14.40;64.60;;;;;;5073611;28;20313;-45
2022/07/28 10:25:11;;;;;;;8.57;6.97;;;14.40;64.60;;;;;;5073810;28;20253;-38
2022/07/28 10:27:44;;;;;;;6.70;6.05;;;14.40;64.60;;;;;;5072687;28;20238;-40
2022/07/28 10:30:15;;;;;;;7.57;6.45;;;14.40;64.60;;;;;;5073135;28;20191;-58
2022/07/28 10:32:47;;;;;;;8.40;7.03;;;14.40;64.60;;;;;;5072549;28;20211;-38
2022/07/28 10:35:18;;;;;;;7.38;6.68;;;14.40;64.60;;;;;;5073475;28;20734;-48
2022/07/28 10:37:53;;;;;;;7.32;6.53;;;14.40;64.60;;;;;;5073439;28;20202;-38
2022/07/28 10:40:28;;;;;;;7.35;6.15;;;14.40;64.50;;;;;;5073543;28;20195;-37
2022/07/28 10:43:00;;;;;;;6.60;5.95;;;14.40;64.50;;;;;;5072110;28;20222;-37
2022/07/28 10:45:31;;;;;;;6.65;5.95;;;14.40;64.50;;;;;;5089115;28;20201;-42
2022/07/28 10:48:04;;;;;;;9.23;6.70;;;14.40;64.50;;;;;;5093966;28;20194;-41
2022/07/28 10:50:35;;;;;;;7.32;6.00;;;14.40;64.50;;;;;;5090647;28;20301;-42
2022/07/28 10:53:07;;;;;;;7.20;5.82;;;14.40;64.50;;;;;;5073107;28;20215;-39
2022/07/28 10:55:50;;;;;;;7.18;5.95;;;14.40;64.60;;;;;;5072722;28;20191;-39
2022/07/28 10:58:31;;;;;;;6.93;6.22;;;14.40;64.60;;;;;;5053692;28;20282;-40
2022/07/28 11:01:02;;;;;;;6.43;5.78;;;14.40;64.50;;;;;;5052577;28;20564;-49
2022/07/28 11:03:41;;;;;;;6.40;5.80;;;14.40;64.50;;;;;;5053648;28;20227;-38
2022/07/28 11:06:29;;;;;;;6.10;5.60;;;14.40;64.50;;;;;;5053818;28;20202;-51
2022/07/28 11:09:00;;;;;;;6.80;5.82;;;14.40;64.50;;;;;;5051090;28;20222;-45
2022/07/28 11:11:50;;;;;;;8.18;6.07;;;14.40;64.50;;;;;;5052783;28;20210;-38
2022/07/28 11:14:36;;;;;;;6.07;5.40;;;14.40;64.50;;;;;;5052424;28;20192;-43
2022/07/28 11:17:17;;;;;;;7.38;5.82;;;14.40;64.50;;;;;;5059038;28;20239;-40
2022/07/28 11:19:57;;;;;;;6.07;5.35;;;14.40;64.40;;;;;;5072105;28;20214;-40
2022/07/28 11:22:32;;;;;;;5.95;5.35;;;14.40;64.50;;;;;;5071353;28;20248;-41
2022/07/28 11:25:17;;;;;;;6.88;5.85;;;14.40;65.20;;;;;;5071800;28;20238;-40
2022/07/28 11:28:10;;;;;;;7.18;5.88;;;14.40;64.50;;;;;;5071757;28;20259;-38
2022/07/28 11:30:57;;;;;;;6.18;5.53;;;14.40;64.50;;;;;;5068647;28;20191;-41
2022/07/28 11:33:47;;;;;;;6.50;5.72;;;14.40;64.50;;;;;;5071342;28;20595;-38
2022/07/28 11:36:18;;;;;;;5.90;5.30;;;14.30;64.40;;;;;;5071289;28;20646;-37
2022/07/28 11:39:26;;;;;;;6.43;5.50;;;14.30;64.40;;;;;;5071680;28;20198;-45
2022/07/28 11:41:57;;;;;;;6.18;5.18;;;14.30;64.40;;;;;;5071792;28;20222;-43
2022/07/28 11:44:31;;;;;;;5.97;5.38;;;14.30;64.40;;;;;;5071662;28;20541;-37
2022/07/28 11:47:19;;;;;;;6.28;5.43;;;14.30;64.40;;;;;;5071445;28;20190;-39
2022/07/28 11:50:13;;;;;;;6.38;5.07;;;14.30;64.40;;;;;;5071361;28;20202;-39
2022/07/28 11:52:55;;;;;;;5.40;4.90;;;14.30;64.30;;;;;;5071282;28;20316;-42
2022/07/28 11:55:26;;;;;;;6.55;4.97;;;14.40;64.40;;;;;;5071324;28;20190;-37
2022/07/28 11:57:57;;;;;;;5.57;4.97;;;14.30;64.30;;;;;;5071599;28;20248;-41
2022/07/28 12:00:30;;;;;;;6.00;5.35;;;14.30;64.30;;;;;;5071163;28;20557;-43
2022/07/28 12:03:04;;;;;;;6.35;5.18;;;14.30;64.30;;;;;;5070705;28;20710;-37
2022/07/28 12:05:36;;;;;;;5.63;5.10;;;14.30;64.40;;;;;;5071378;28;20234;-38
2022/07/28 12:08:07;;;;;;;6.38;5.53;;;14.30;64.30;;;;;;5071330;28;20279;-39
2022/07/28 12:10:40;;;;;;;5.32;4.63;;;14.30;64.40;;;;;;5070936;28;20763;-37
2022/07/28 12:13:11;;;;;;;6.35;5.03;;;14.30;64.40;;;;;;5071249;28;20609;-42
2022/07/28 12:15:51;;;;;;;5.50;4.90;;;14.30;64.40;;;;;;5071094;28;20195;-41
2022/07/28 12:18:21;;;;;;;5.10;4.60;;;14.30;64.40;;;;;;5070319;28;20214;-40
2022/07/28 12:20:53;;;;;;;5.88;5.13;;;14.30;64.30;;;;;;5070372;28;20213;-48
2022/07/28 12:23:32;;;;;;;4.75;4.32;;;14.30;64.30;;;;;;5070502;28;20687;-38
2022/07/28 12:26:03;;;;;;;5.68;5.10;;;14.30;64.30;;;;;;5070748;28;20202;-37
2022/07/28 12:28:34;;;;;;;5.60;4.63;;;14.30;64.30;;;;;;5070901;28;20195;-37
2022/07/28 12:31:16;;;;;;;4.38;3.90;;;14.30;64.30;;;;;;5070286;28;20658;-43
2022/07/28 12:33:46;;;;;;;5.47;4.68;;;14.30;64.30;;;;;;5069447;28;20223;-38
2022/07/28 12:36:20;;;;;;;4.90;4.40;;;14.30;64.30;;;;;;5069979;28;20206;-37
2022/07/28 12:38:52;;;;;;;5.32;4.47;;;14.30;64.20;;;;;;5070174;28;20290;-37
2022/07/28 12:41:23;;;;;;;5.10;4.60;;;14.30;64.30;;;;;;5070591;28;20195;-38
2022/07/28 12:43:55;;;;;;;5.13;4.63;;;14.20;64.20;;;;;;5069718;28;20226;-41
2022/07/28 12:46:29;;;;;;;4.90;4.50;;;14.30;64.30;;;;;;5069550;28;20198;-41
2022/07/28 12:49:01;;;;;;;5.03;4.53;;;14.30;64.80;;;;;;5069763;28;20736;-37
2022/07/28 12:51:36;;;;;;;5.03;4.53;;;14.20;64.30;;;;;;5069829;28;20203;-38
2022/07/28 12:54:08;;;;;;;5.47;4.80;;;14.30;64.30;;;;;;5069980;28;20233;-37
2022/07/28 12:56:49;;;;;;;4.65;4.20;;;14.30;64.30;;;;;;5070380;28;20662;-38
2022/07/28 12:59:23;;;;;;;4.75;4.28;;;14.30;64.20;;;;;;5068905;28;20206;-37
2022/07/28 13:01:57;;;;;;;5.30;4.30;;;14.30;64.20;;;;;;5070090;28;20214;-38
2022/07/28 13:04:44;;;;;;;4.35;3.95;;;14.30;64.20;;;;;;5050371;28;20196;-41
2022/07/28 13:07:16;;;;;;;4.55;4.07;;;14.20;64.10;;;;;;5061425;28;20194;-43
2022/07/28 13:09:48;;;;;;;4.30;3.90;;;14.20;64.10;;;;;;5070335;28;20224;-37
2022/07/28 13:12:21;;;;;;;5.20;4.22;;;14.20;64.10;;;;;;5069819;28;20217;-40